createdAt,value
2018-10-12T00:01:46.787Z,17.90
2018-10-12T00:04:15.063Z,17.90
2018-10-12T00:06:43.404Z,17.80
2018-10-12T00:09:12.072Z,17.80
2018-10-12T00:11:40.463Z,17.80
2018-10-12T00:14:09.251Z,17.80
2018-10-12T00:16:37.548Z,17.80
2018-10-12T00:19:05.818Z,17.80
2018-10-12T00:21:34.105Z,17.70
2018-10-12T00:24:02.385Z,17.80
2018-10-12T00:26:30.668Z,17.80
2018-10-12T00:28:58.931Z,17.80
2018-10-12T00:31:27.192Z,17.80
2018-10-12T00:33:55.458Z,17.70
2018-10-12T00:36:23.735Z,17.70
2018-10-12T00:38:52.031Z,17.60
2018-10-12T00:41:20.271Z,17.70
2018-10-12T00:43:48.566Z,17.60
2018-10-12T00:46:16.875Z,17.60
2018-10-12T00:48:45.137Z,17.60
2018-10-12T00:51:13.428Z,17.60
2018-10-12T00:53:41.699Z,17.60
2018-10-12T00:56:10.285Z,17.60
2018-10-12T00:58:38.544Z,17.60
2018-10-12T01:01:06.783Z,17.60
2018-10-12T01:03:35.038Z,17.50
2018-10-12T01:06:03.288Z,17.40
2018-10-12T01:08:31.547Z,17.40
2018-10-12T01:10:59.853Z,17.30
2018-10-12T01:13:28.111Z,17.20
2018-10-12T01:15:56.357Z,17.10
2018-10-12T01:18:24.651Z,17.20
2018-10-12T01:20:52.979Z,17.30
2018-10-12T01:23:21.243Z,17.20
2018-10-12T01:25:49.503Z,17.10
2018-10-12T01:28:17.863Z,17.20
2018-10-12T01:30:46.140Z,17.20
2018-10-12T01:33:14.423Z,17.30
2018-10-12T01:35:42.643Z,17.20
2018-10-12T01:38:10.910Z,17.30
2018-10-12T01:40:39.174Z,17.30
2018-10-12T01:43:07.455Z,17.30
2018-10-12T01:45:35.711Z,17.30
2018-10-12T01:48:03.955Z,17.40
2018-10-12T01:50:32.236Z,17.40
2018-10-12T01:53:00.511Z,17.40
2018-10-12T01:55:28.814Z,17.40
2018-10-12T01:57:57.070Z,17.30
2018-10-12T02:00:25.312Z,17.30
2018-10-12T02:02:53.575Z,17.30
2018-10-12T02:05:21.823Z,17.30
2018-10-12T02:07:50.096Z,17.20
2018-10-12T02:10:18.370Z,17.20
2018-10-12T02:12:46.696Z,17.20
2018-10-12T02:15:15.032Z,17.20
2018-10-12T02:17:43.306Z,17.30
2018-10-12T02:20:11.855Z,17.30
2018-10-12T02:22:40.172Z,17.30
2018-10-12T02:25:08.826Z,17.30
2018-10-12T02:27:37.069Z,17.30
2018-10-12T02:30:06.482Z,17.30
2018-10-12T02:32:34.768Z,17.30
2018-10-12T02:35:03.157Z,17.30
2018-10-12T02:37:31.405Z,17.40
2018-10-12T02:39:59.715Z,17.30
2018-10-12T02:42:27.974Z,17.30
2018-10-12T02:44:56.231Z,17.30
2018-10-12T02:47:24.512Z,17.30
2018-10-12T02:49:52.793Z,17.30
2018-10-12T02:52:21.040Z,17.30
2018-10-12T02:54:49.301Z,17.30
2018-10-12T02:57:17.550Z,17.20
2018-10-12T02:59:45.797Z,17.30
2018-10-12T03:02:14.074Z,17.20
2018-10-12T03:04:43.581Z,17.10
2018-10-12T03:07:11.915Z,17.20
2018-10-12T03:09:40.344Z,17.20
2018-10-12T03:12:08.749Z,17.20
2018-10-12T03:14:37.063Z,17.00
2018-10-12T03:17:05.380Z,17.20
2018-10-12T03:19:33.673Z,17.30
2018-10-12T03:22:01.931Z,17.20
2018-10-12T03:24:30.212Z,17.20
2018-10-12T03:26:58.470Z,17.00
2018-10-12T03:29:26.953Z,17.00
2018-10-12T03:31:55.330Z,17.10
2018-10-12T03:34:23.680Z,17.00
2018-10-12T03:36:52.294Z,17.10
2018-10-12T03:39:20.774Z,17.20
2018-10-12T03:41:49.135Z,17.20
2018-10-12T03:44:17.438Z,17.10
2018-10-12T03:46:45.928Z,17.10
2018-10-12T03:49:14.226Z,17.10
2018-10-12T03:51:42.688Z,17.20
2018-10-12T03:54:11.272Z,17.10
2018-10-12T03:56:39.552Z,17.10
2018-10-12T03:59:08.011Z,17.00
2018-10-12T04:01:36.324Z,17.00
2018-10-12T04:04:04.595Z,17.00
2018-10-12T04:06:32.872Z,17.00
2018-10-12T04:09:01.184Z,16.90
2018-10-12T04:11:29.519Z,16.80
2018-10-12T04:13:57.829Z,16.80
2018-10-12T04:16:26.095Z,16.80
2018-10-12T04:18:54.402Z,16.80
2018-10-12T04:21:22.812Z,16.80
2018-10-12T04:23:51.134Z,16.70
2018-10-12T04:26:19.443Z,16.60
2018-10-12T04:28:47.799Z,16.60
2018-10-12T04:31:16.031Z,16.50
2018-10-12T04:33:44.397Z,16.60
2018-10-12T04:41:54.069Z,16.50
2018-10-12T04:44:22.356Z,16.50
2018-10-12T04:46:50.643Z,16.60
2018-10-12T04:49:19.059Z,16.50
2018-10-12T04:51:53.839Z,16.50
2018-10-12T04:54:22.313Z,16.50
2018-10-12T04:56:51.107Z,16.60
2018-10-12T04:59:19.778Z,16.60
2018-10-12T05:01:48.183Z,16.60
2018-10-12T05:04:16.484Z,16.60
2018-10-12T05:06:44.837Z,16.60
2018-10-12T05:09:13.823Z,16.50
2018-10-12T05:11:42.258Z,16.50
2018-10-12T05:14:10.968Z,16.40
2018-10-12T05:16:39.419Z,16.40
2018-10-12T05:19:08.331Z,16.40
2018-10-12T05:21:36.592Z,16.30
2018-10-12T05:24:04.967Z,16.40
2018-10-12T05:26:33.354Z,16.30
2018-10-12T05:32:06.147Z,16.10
2018-10-12T05:34:35.119Z,16.00
2018-10-12T05:37:04.043Z,16.00
2018-10-12T05:39:33.255Z,15.90
2018-10-12T05:42:03.105Z,15.90
2018-10-12T05:44:31.867Z,15.90
2018-10-12T05:47:01.686Z,15.80
2018-10-12T05:49:46.537Z,15.90
2018-10-12T05:52:15.271Z,15.90
2018-10-12T05:54:45.762Z,16.00
2018-10-12T05:57:18.075Z,15.80
2018-10-12T05:59:46.953Z,15.90
2018-10-12T06:02:16.124Z,15.80
2018-10-12T06:04:44.438Z,15.80
2018-10-12T06:07:12.774Z,15.80
2018-10-12T06:09:41.397Z,15.80
2018-10-12T06:12:09.580Z,15.70
2018-10-12T06:14:37.984Z,15.70
2018-10-12T06:17:06.287Z,15.80
2018-10-12T06:19:34.545Z,15.70
2018-10-12T06:22:02.835Z,15.70
2018-10-12T06:24:31.092Z,15.90
2018-10-12T06:26:59.464Z,15.90
2018-10-12T06:29:28.281Z,16.00
2018-10-12T06:31:57.348Z,16.20
2018-10-12T06:34:25.722Z,16.30
2018-10-12T06:36:54.008Z,16.40
2018-10-12T06:39:22.269Z,16.60
2018-10-12T06:41:50.941Z,16.70
2018-10-12T06:44:19.368Z,16.80
2018-10-12T06:46:48.026Z,16.90
2018-10-12T06:49:16.383Z,16.90
2018-10-12T06:51:44.734Z,16.90
2018-10-12T06:54:14.920Z,16.90
2018-10-12T06:56:47.790Z,17.00
2018-10-12T06:59:16.379Z,17.00
2018-10-12T07:01:44.830Z,16.90
2018-10-12T07:04:13.113Z,17.00
2018-10-12T07:06:41.395Z,17.20
2018-10-12T07:09:11.140Z,17.20
2018-10-12T07:11:39.413Z,17.20
2018-10-12T07:14:07.767Z,17.30
2018-10-12T07:16:36.007Z,17.40
2018-10-12T07:19:04.276Z,17.40
2018-10-12T07:21:32.543Z,17.40
2018-10-12T07:24:00.805Z,17.40
2018-10-12T07:26:29.088Z,17.40
2018-10-12T07:28:57.363Z,17.50
2018-10-12T07:31:25.644Z,17.70
2018-10-12T07:33:53.896Z,17.80
2018-10-12T07:36:22.157Z,17.90
2018-10-12T07:38:50.546Z,18.00
2018-10-12T07:41:18.819Z,18.10
2018-10-12T07:43:47.098Z,18.20
2018-10-12T07:46:15.367Z,18.40
2018-10-12T07:48:43.666Z,18.40
2018-10-12T07:51:15.763Z,18.60
2018-10-12T07:53:44.118Z,18.70
2018-10-12T07:56:12.384Z,18.70
2018-10-12T07:58:40.643Z,18.60
2018-10-12T08:01:09.039Z,18.70
2018-10-12T08:03:37.305Z,18.80
2018-10-12T08:06:05.648Z,18.80
2018-10-12T08:08:33.883Z,18.80
2018-10-12T08:11:02.234Z,18.90
2018-10-12T08:13:30.556Z,18.90
2018-10-12T08:15:58.939Z,18.90
2018-10-12T08:18:28.392Z,19.00
2018-10-12T08:20:56.889Z,19.00
2018-10-12T08:23:26.273Z,18.90
2018-10-12T08:25:54.535Z,19.20
2018-10-12T08:28:23.027Z,19.50
2018-10-12T08:30:51.321Z,19.70
2018-10-12T08:33:23.507Z,19.90
2018-10-12T08:35:51.781Z,20.00
2018-10-12T08:38:20.048Z,19.90
2018-10-12T08:40:48.403Z,19.90
2018-10-12T08:43:16.660Z,19.80
2018-10-12T08:45:45.040Z,20.00
2018-10-12T08:48:13.403Z,20.10
2018-10-12T08:50:41.671Z,20.20
2018-10-12T08:53:10.055Z,20.30
2018-10-12T08:55:38.425Z,20.30
2018-10-12T08:58:06.674Z,20.50
2018-10-12T09:00:34.955Z,20.70
2018-10-12T09:03:03.387Z,20.70
2018-10-12T09:05:31.784Z,20.80
2018-10-12T09:08:00.210Z,20.70
2018-10-12T09:10:28.643Z,20.80
2018-10-12T09:12:57.019Z,20.80
2018-10-12T09:15:25.467Z,20.90
2018-10-12T09:17:53.820Z,21.00
2018-10-12T09:20:22.314Z,20.90
2018-10-12T09:22:50.987Z,21.20
2018-10-12T09:25:20.457Z,21.10
2018-10-12T09:27:49.734Z,21.20
2018-10-12T09:30:18.191Z,21.30
2018-10-12T09:32:46.591Z,21.60
2018-10-12T09:35:14.988Z,21.70
2018-10-12T09:37:43.545Z,21.70
2018-10-12T09:40:11.822Z,21.70
2018-10-12T09:42:40.108Z,21.40
2018-10-12T09:45:08.511Z,21.60
2018-10-12T09:47:36.919Z,21.80
2018-10-12T09:50:05.401Z,22.00
2018-10-12T09:52:34.156Z,22.00
2018-10-12T09:55:02.579Z,22.10
2018-10-12T09:57:35.822Z,22.10
2018-10-12T10:00:08.019Z,22.00
2018-10-12T10:02:41.690Z,22.00
2018-10-12T10:05:24.907Z,22.00
2018-10-12T10:07:53.653Z,22.00
2018-10-12T10:10:22.314Z,22.00
2018-10-12T10:12:50.749Z,22.10
2018-10-12T10:15:19.156Z,22.30
2018-10-12T10:17:48.132Z,22.50
2018-10-12T10:20:16.532Z,22.60
2018-10-12T10:22:45.001Z,22.80
2018-10-12T10:25:13.564Z,22.80
2018-10-12T10:27:41.877Z,22.80
2018-10-12T10:30:10.208Z,22.90
2018-10-12T10:32:38.607Z,23.00
2018-10-12T10:35:07.267Z,22.90
2018-10-12T10:37:36.044Z,23.00
2018-10-12T10:40:04.520Z,23.10
2018-10-12T10:42:33.114Z,23.30
2018-10-12T10:45:02.273Z,23.30
2018-10-12T10:47:30.760Z,23.50
2018-10-12T10:49:59.534Z,23.60
2018-10-12T10:52:28.013Z,23.60
2018-10-12T10:54:56.351Z,23.70
2018-10-12T10:57:24.837Z,23.80
2018-10-12T10:59:53.166Z,23.70
2018-10-12T11:02:21.487Z,23.70
2018-10-12T11:04:49.919Z,23.50
2018-10-12T11:07:18.358Z,23.70
2018-10-12T11:09:46.817Z,24.00
2018-10-12T11:12:15.745Z,24.00
2018-10-12T11:14:44.493Z,23.80
2018-10-12T11:17:12.860Z,24.20
2018-10-12T11:19:41.465Z,24.20
2018-10-12T11:22:09.699Z,24.20
2018-10-12T11:24:38.131Z,24.50
2018-10-12T11:27:06.460Z,24.50
2018-10-12T11:29:34.838Z,24.60
2018-10-12T11:32:03.635Z,24.80
2018-10-12T11:34:32.631Z,24.80
2018-10-12T11:37:00.992Z,24.90
2018-10-12T11:39:29.336Z,24.90
2018-10-12T11:41:57.660Z,24.90
2018-10-12T11:44:26.104Z,25.20
2018-10-12T11:46:54.450Z,25.20
2018-10-12T11:49:22.877Z,25.30
2018-10-12T11:51:51.866Z,25.30
2018-10-12T11:54:20.309Z,25.30
2018-10-12T11:56:48.644Z,25.40
2018-10-12T11:59:16.923Z,25.60
2018-10-12T12:01:45.391Z,25.50
2018-10-12T12:04:13.772Z,25.70
2018-10-12T12:06:42.140Z,25.80
2018-10-12T12:09:10.553Z,25.80
2018-10-12T12:11:38.822Z,25.80
2018-10-12T12:14:07.327Z,25.80
2018-10-12T12:16:35.758Z,25.90
2018-10-12T12:19:06.550Z,25.60
2018-10-12T12:21:35.137Z,25.50
2018-10-12T12:24:03.846Z,25.70
2018-10-12T12:26:32.491Z,25.80
2018-10-12T12:29:00.959Z,26.00
2018-10-12T12:31:30.104Z,26.00
2018-10-12T12:33:58.463Z,26.30
2018-10-12T12:36:26.789Z,26.40
2018-10-12T12:38:55.151Z,26.20
2018-10-12T12:41:23.476Z,26.30
2018-10-12T12:43:52.114Z,26.50
2018-10-12T12:46:20.460Z,26.60
2018-10-12T12:48:49.300Z,26.20
2018-10-12T12:51:17.134Z,26.20
2018-10-12T12:53:45.432Z,26.10
2018-10-12T12:56:13.807Z,26.00
2018-10-12T12:58:42.331Z,26.10
2018-10-12T13:01:10.683Z,26.30
2018-10-12T13:03:38.948Z,26.30
2018-10-12T13:06:07.336Z,26.40
2018-10-12T13:08:35.653Z,26.10
2018-10-12T13:11:04.049Z,26.20
2018-10-12T13:13:32.447Z,26.40
2018-10-12T13:16:00.723Z,26.50
2018-10-12T13:18:29.049Z,26.30
2018-10-12T13:20:57.353Z,26.50
2018-10-12T13:23:25.751Z,26.60
2018-10-12T13:25:54.186Z,26.50
2018-10-12T13:28:22.541Z,26.60
2018-10-12T13:30:50.853Z,26.50
2018-10-12T13:33:19.115Z,26.60
2018-10-12T13:35:47.381Z,26.60
2018-10-12T13:38:15.669Z,26.90
2018-10-12T13:40:44.016Z,27.10
2018-10-12T13:43:12.307Z,27.10
2018-10-12T13:45:40.552Z,26.90
2018-10-12T13:48:08.893Z,26.90
2018-10-12T13:50:37.203Z,26.80
2018-10-12T13:53:07.790Z,26.80
2018-10-12T13:55:36.337Z,27.00
2018-10-12T13:58:04.327Z,27.20
2018-10-12T14:00:32.700Z,27.20
2018-10-12T14:03:00.981Z,27.20
2018-10-12T14:05:29.573Z,27.20
2018-10-12T14:07:57.950Z,27.10
2018-10-12T14:10:26.667Z,27.00
2018-10-12T14:12:55.032Z,27.00
2018-10-12T14:15:23.428Z,27.10
2018-10-12T14:17:51.807Z,27.10
2018-10-12T14:20:20.245Z,27.30
2018-10-12T14:22:48.473Z,27.30
2018-10-12T14:25:16.861Z,27.40
2018-10-12T14:27:45.084Z,27.00
2018-10-12T14:30:13.432Z,26.70
2018-10-12T14:32:41.809Z,26.80
2018-10-12T14:35:10.149Z,27.00
2018-10-12T14:37:38.416Z,27.00
2018-10-12T14:40:06.842Z,27.00
2018-10-12T14:42:35.120Z,26.80
2018-10-12T14:45:03.456Z,26.60
2018-10-12T14:47:31.747Z,26.50
2018-10-12T14:50:00.068Z,26.60
2018-10-12T14:52:28.335Z,26.50
2018-10-12T14:54:56.636Z,26.50
2018-10-12T14:57:24.883Z,26.60
2018-10-12T14:59:56.434Z,26.40
2018-10-12T15:02:25.106Z,26.50
2018-10-12T15:04:53.390Z,26.50
2018-10-12T15:07:21.880Z,26.60
2018-10-12T15:09:50.340Z,26.60
2018-10-12T15:12:18.799Z,26.40
2018-10-12T15:14:58.436Z,26.10
2018-10-12T15:17:26.815Z,26.00
2018-10-12T15:19:55.188Z,26.00
2018-10-12T15:22:23.589Z,26.10
2018-10-12T15:24:51.951Z,26.20
2018-10-12T15:27:20.319Z,26.30
2018-10-12T15:29:48.641Z,26.20
2018-10-12T15:32:16.946Z,26.30
2018-10-12T15:34:48.217Z,26.30
2018-10-12T15:37:16.651Z,26.30
2018-10-12T15:39:44.905Z,26.30
2018-10-12T15:42:13.239Z,26.40
2018-10-12T15:44:42.686Z,26.40
2018-10-12T15:47:11.235Z,26.40
2018-10-12T15:49:39.606Z,26.30
2018-10-12T15:52:08.093Z,26.30
2018-10-12T15:54:36.620Z,26.20
2018-10-12T15:57:23.370Z,26.10
2018-10-12T15:59:52.050Z,26.10
2018-10-12T16:02:20.324Z,26.00
2018-10-12T16:04:48.600Z,25.80
2018-10-12T16:07:17.695Z,25.60
2018-10-12T16:09:47.834Z,25.70
2018-10-12T16:12:16.407Z,25.60
2018-10-12T16:14:44.797Z,25.50
2018-10-12T16:17:20.613Z,25.50
2018-10-12T16:19:49.721Z,25.30
2018-10-12T16:22:18.071Z,25.20
2018-10-12T16:24:58.126Z,25.20
2018-10-12T16:27:26.641Z,25.00
2018-10-12T16:29:55.088Z,25.00
2018-10-12T16:32:23.468Z,24.90
2018-10-12T16:34:51.954Z,24.80
2018-10-12T16:37:20.284Z,24.60
2018-10-12T16:39:48.632Z,24.60
2018-10-12T16:42:16.938Z,24.60
2018-10-12T16:44:45.265Z,24.50
2018-10-12T16:47:13.745Z,24.50
2018-10-12T16:49:42.125Z,24.40
2018-10-12T16:52:10.643Z,24.30
2018-10-12T16:54:38.983Z,24.10
2018-10-12T16:57:07.513Z,24.10
2018-10-12T16:59:35.908Z,24.00
2018-10-12T17:02:04.247Z,23.90
2018-10-12T17:04:32.526Z,23.90
2018-10-12T17:07:01.048Z,23.80
2018-10-12T17:09:29.388Z,23.80
2018-10-12T17:11:57.843Z,23.70
2018-10-12T17:14:26.291Z,23.70
2018-10-12T17:16:54.635Z,23.50
2018-10-12T17:19:22.975Z,23.40
2018-10-12T17:21:51.298Z,23.30
2018-10-12T17:24:19.641Z,23.30
2018-10-12T17:26:47.988Z,23.30
2018-10-12T17:29:16.289Z,23.10
2018-10-12T17:31:44.594Z,23.10
2018-10-12T17:34:12.873Z,23.00
2018-10-12T17:36:41.164Z,23.00
2018-10-12T17:39:10.760Z,22.90
2018-10-12T17:41:39.147Z,22.80
2018-10-12T17:44:07.402Z,22.70
2018-10-12T17:46:35.667Z,22.60
2018-10-12T17:49:04.001Z,22.50
2018-10-12T17:51:32.386Z,22.50
2018-10-12T17:54:00.617Z,22.40
2018-10-12T17:56:28.901Z,22.30
2018-10-12T17:58:57.241Z,22.20
2018-10-12T18:01:25.484Z,22.20
2018-10-12T18:03:53.706Z,22.10
2018-10-12T18:06:22.102Z,22.00
2018-10-12T18:08:50.468Z,22.00
2018-10-12T18:11:18.764Z,22.00
2018-10-12T18:13:47.034Z,22.00
2018-10-12T18:16:15.311Z,22.00
2018-10-12T18:18:43.594Z,22.00
2018-10-12T18:21:11.859Z,21.90
2018-10-12T18:23:40.167Z,21.90
2018-10-12T18:26:08.433Z,21.80
2018-10-12T18:28:36.671Z,21.80
2018-10-12T18:31:05.054Z,21.80
2018-10-12T18:33:33.351Z,21.70
2018-10-12T18:36:01.629Z,21.70
2018-10-12T18:38:29.832Z,21.60
2018-10-12T18:40:58.094Z,21.60
2018-10-12T18:43:26.341Z,21.50
2018-10-12T18:45:54.611Z,21.50
2018-10-12T18:48:22.909Z,21.60
2018-10-12T18:50:51.537Z,21.60
2018-10-12T18:53:19.793Z,21.50
2018-10-12T18:55:48.110Z,21.60
2018-10-12T18:58:16.359Z,21.60
2018-10-12T19:00:44.633Z,21.50
2018-10-12T19:03:13.275Z,21.50
2018-10-12T19:05:41.624Z,21.50
2018-10-12T19:08:09.911Z,21.40
2018-10-12T19:10:38.252Z,21.30
2018-10-12T19:13:06.548Z,21.30
2018-10-12T19:15:34.824Z,21.20
2018-10-12T19:18:03.095Z,21.20
2018-10-12T19:20:31.366Z,21.20
2018-10-12T19:22:59.604Z,21.20
2018-10-12T19:25:27.926Z,21.20
2018-10-12T19:27:56.196Z,21.20
2018-10-12T19:30:25.177Z,21.20
2018-10-12T19:32:53.465Z,21.10
2018-10-12T19:35:21.943Z,21.10
2018-10-12T19:37:50.413Z,21.10
2018-10-12T19:40:18.639Z,21.10
2018-10-12T19:42:46.914Z,21.00
2018-10-12T19:45:15.165Z,20.90
2018-10-12T19:47:43.462Z,20.80
2018-10-12T19:50:11.788Z,20.90
2018-10-12T19:52:40.109Z,20.90
2018-10-12T19:55:08.391Z,20.80
2018-10-12T19:57:36.730Z,20.80
2018-10-12T20:00:05.026Z,20.80
2018-10-12T20:02:33.325Z,20.70
2018-10-12T20:05:01.647Z,20.70
2018-10-12T20:07:29.923Z,20.60
2018-10-12T20:09:58.176Z,20.60
2018-10-12T20:12:26.441Z,20.60
2018-10-12T20:14:54.702Z,20.60
2018-10-12T20:17:23.028Z,20.50
2018-10-12T20:19:51.568Z,20.50
2018-10-12T20:22:19.819Z,20.30
2018-10-12T20:24:48.120Z,20.30
2018-10-12T20:27:16.419Z,20.30
2018-10-12T20:29:44.656Z,20.20
2018-10-12T20:32:12.951Z,20.20
2018-10-12T20:34:41.200Z,20.20
2018-10-12T20:37:09.445Z,20.20
2018-10-12T20:39:37.709Z,20.20
2018-10-12T20:42:06.010Z,20.10
2018-10-12T20:44:34.264Z,20.10
2018-10-12T20:47:02.573Z,20.20
2018-10-12T20:49:30.917Z,20.20
2018-10-12T20:51:59.169Z,20.20
2018-10-12T20:54:27.423Z,20.20
2018-10-12T20:56:55.807Z,20.20
2018-10-12T20:59:24.679Z,20.10
2018-10-12T21:01:53.016Z,20.10
2018-10-12T21:04:21.323Z,20.10
2018-10-12T21:06:49.572Z,20.10
2018-10-12T21:09:17.848Z,20.00
2018-10-12T21:11:46.090Z,19.80
2018-10-12T21:14:14.367Z,19.70
2018-10-12T21:16:42.644Z,19.70
2018-10-12T21:19:10.919Z,19.70
2018-10-12T21:21:39.150Z,19.70
2018-10-12T21:24:07.399Z,19.70
2018-10-12T21:26:35.682Z,19.60
2018-10-12T21:29:03.937Z,19.60
2018-10-12T21:31:32.202Z,19.50
2018-10-12T21:34:00.471Z,19.50
2018-10-12T21:36:29.554Z,19.50
2018-10-12T21:38:57.799Z,19.50
2018-10-12T21:41:26.053Z,19.60
2018-10-12T21:43:54.307Z,19.60
2018-10-12T21:46:22.586Z,19.60
2018-10-12T21:48:50.863Z,19.50
2018-10-12T21:51:19.163Z,19.40
2018-10-12T21:53:47.740Z,19.50
2018-10-12T21:56:16.028Z,19.60
2018-10-12T21:58:44.303Z,19.60
2018-10-12T22:01:12.601Z,19.60
2018-10-12T22:03:40.847Z,19.70
2018-10-12T22:06:09.133Z,19.70
2018-10-12T22:08:42.722Z,19.70
2018-10-12T22:11:11.004Z,19.80
2018-10-12T22:13:39.325Z,19.60
2018-10-12T22:16:07.634Z,19.60
2018-10-12T22:18:35.854Z,19.70
2018-10-12T22:21:04.112Z,19.80
2018-10-12T22:23:32.371Z,19.70
2018-10-12T22:26:01.063Z,19.70
2018-10-12T22:28:29.252Z,19.70
2018-10-12T22:30:57.518Z,19.60
2018-10-12T22:33:25.799Z,19.60
2018-10-12T22:35:54.071Z,19.60
2018-10-12T22:38:22.368Z,19.50
2018-10-12T22:40:50.883Z,19.40
2018-10-12T22:43:19.155Z,19.50
2018-10-12T22:45:47.390Z,19.40
2018-10-12T22:48:15.664Z,19.40
2018-10-12T22:50:43.946Z,19.30
2018-10-12T22:53:12.211Z,19.20
2018-10-12T22:55:40.500Z,19.20
2018-10-12T22:58:08.779Z,19.30
2018-10-12T23:00:37.038Z,19.30
2018-10-12T23:03:05.299Z,19.30
2018-10-12T23:05:33.586Z,19.30
2018-10-12T23:08:01.783Z,19.20
2018-10-12T23:10:30.065Z,19.20
2018-10-12T23:12:58.344Z,19.20
2018-10-12T23:15:26.617Z,19.10
2018-10-12T23:17:54.897Z,19.00
2018-10-12T23:20:23.163Z,19.00
2018-10-12T23:22:51.446Z,19.00
2018-10-12T23:25:20.412Z,19.10
2018-10-12T23:27:48.825Z,19.00
2018-10-12T23:30:17.059Z,19.00
2018-10-12T23:32:45.340Z,19.10
2018-10-12T23:35:13.599Z,19.20
2018-10-12T23:37:41.895Z,19.10
2018-10-12T23:40:10.200Z,19.10
2018-10-12T23:42:38.491Z,19.20
2018-10-12T23:45:06.821Z,19.20
2018-10-12T23:47:35.093Z,19.10
2018-10-12T23:50:03.518Z,19.10
2018-10-12T23:52:31.795Z,19.00
2018-10-12T23:55:00.075Z,19.00
2018-10-12T23:57:28.340Z,19.00
2018-10-12T23:59:56.593Z,19.00
